Time;durP1;ratioP1;P1;durP2;ratioP2;P2;SDS_P1;SDS_P2;PMS_P1;PMS_P2;Temp;Humidity;BMP_temperature;BMP_pressure;BME280_temperature;BME280_humidity;BME280_pressure;Samples;Min_cycle;Max_cycle;Signal;HPM_P1;HPM_P2
2024/03/23 00:01:41;;;;;;;3.42;1.80;;;24.00;50.60;;;;;;5082912;28;20039;-68
2024/03/23 00:04:08;;;;;;;2.67;1.60;;;24.00;50.60;;;;;;5079969;28;20036;-69
2024/03/23 00:06:34;;;;;;;2.85;1.70;;;24.00;50.60;;;;;;5078255;28;20373;-67
2024/03/23 00:09:01;;;;;;;2.15;1.42;;;24.00;50.50;;;;;;5051823;28;20032;-67
2024/03/23 00:11:28;;;;;;;2.30;1.40;;;24.00;50.60;;;;;;5071483;28;20496;-67
2024/03/23 00:13:54;;;;;;;1.98;1.20;;;24.00;50.60;;;;;;5071223;28;20033;-67
2024/03/23 00:16:25;;;;;;;1.83;1.20;;;24.00;50.60;;;;;;5070415;28;20033;-67
2024/03/23 00:18:52;;;;;;;2.08;1.20;;;24.00;50.60;;;;;;5070164;28;20028;-67
2024/03/23 00:21:19;;;;;;;2.03;1.35;;;23.90;50.50;;;;;;5071043;28;20013;-67
2024/03/23 00:23:45;;;;;;;2.80;1.30;;;23.90;50.60;;;;;;5070971;28;20035;-65
2024/03/23 00:26:11;;;;;;;1.50;1.20;;;23.90;50.60;;;;;;5053029;28;20387;-65
2024/03/23 00:28:38;;;;;;;2.45;1.42;;;23.90;50.60;;;;;;5070567;28;20031;-65
2024/03/23 00:31:04;;;;;;;2.17;1.30;;;23.90;50.60;;;;;;5070565;28;20404;-65
2024/03/23 00:33:31;;;;;;;1.92;1.25;;;23.90;50.60;;;;;;5069895;28;20047;-65
2024/03/23 00:35:57;;;;;;;2.17;1.20;;;23.80;50.60;;;;;;5070669;28;20021;-65
2024/03/23 00:38:24;;;;;;;1.83;1.20;;;23.80;50.50;;;;;;5070033;28;20017;-65
2024/03/23 00:40:54;;;;;;;2.00;1.38;;;23.80;50.50;;;;;;5070660;28;20403;-65
2024/03/23 00:43:23;;;;;;;2.25;1.40;;;23.80;50.60;;;;;;5070294;28;20119;-65
2024/03/23 00:45:49;;;;;;;3.47;1.50;;;23.80;50.60;;;;;;5070004;28;20036;-65
2024/03/23 00:48:16;;;;;;;1.80;1.20;;;23.80;50.60;;;;;;5069344;28;20024;-65
2024/03/23 00:50:42;;;;;;;2.40;1.30;;;23.80;50.60;;;;;;5070593;28;20120;-65
2024/03/23 00:53:09;;;;;;;2.17;1.30;;;23.80;50.60;;;;;;5070201;28;20044;-65
2024/03/23 00:55:34;;;;;;;2.83;1.20;;;23.80;50.60;;;;;;5070603;28;20115;-65
2024/03/23 00:58:00;;;;;;;2.38;1.40;;;23.70;50.60;;;;;;5070442;28;20492;-65
2024/03/23 01:00:25;;;;;;;1.50;1.20;;;23.70;50.60;;;;;;5070385;28;20102;-65
2024/03/23 01:02:51;;;;;;;2.22;1.38;;;23.70;50.60;;;;;;5069176;28;20036;-65
2024/03/23 01:05:17;;;;;;;1.98;1.27;;;23.70;50.60;;;;;;5070497;28;20476;-67
2024/03/23 01:07:42;;;;;;;1.77;1.30;;;23.70;50.60;;;;;;5070096;28;20028;-65
2024/03/23 01:10:08;;;;;;;2.55;1.38;;;23.70;50.60;;;;;;5070229;28;20107;-65
2024/03/23 01:12:34;;;;;;;2.78;1.30;;;23.70;50.60;;;;;;5070443;28;20087;-67
2024/03/23 01:14:59;;;;;;;2.22;1.30;;;23.70;50.70;;;;;;5070324;28;20970;-67
2024/03/23 01:17:25;;;;;;;1.92;1.20;;;23.60;51.10;;;;;;5069485;28;20392;-67
2024/03/23 01:19:51;;;;;;;2.15;1.23;;;23.60;50.70;;;;;;5070221;28;20069;-67
2024/03/23 01:22:16;;;;;;;2.17;1.15;;;23.60;50.60;;;;;;5070350;28;20045;-67
2024/03/23 01:24:42;;;;;;;2.00;1.25;;;23.50;50.60;;;;;;5069755;28;20031;-67
2024/03/23 01:27:08;;;;;;;1.92;1.30;;;23.60;50.60;;;;;;5070220;28;20021;-67
2024/03/23 01:29:34;;;;;;;1.88;1.35;;;23.50;50.70;;;;;;5070013;28;20035;-67
2024/03/23 01:31:59;;;;;;;2.20;1.40;;;23.50;50.70;;;;;;5070121;28;20476;-67
2024/03/23 01:34:25;;;;;;;2.10;1.33;;;23.50;50.70;;;;;;5069043;28;20034;-69
2024/03/23 01:36:51;;;;;;;2.53;1.65;;;23.50;50.70;;;;;;5070124;28;20104;-69
2024/03/23 01:39:17;;;;;;;1.83;1.40;;;23.50;50.70;;;;;;5069682;28;20163;-69
2024/03/23 01:41:43;;;;;;;2.22;1.40;;;23.50;50.70;;;;;;5069998;28;20017;-69
2024/03/23 01:44:09;;;;;;;2.13;1.30;;;23.50;50.70;;;;;;5069243;28;20028;-69
2024/03/23 01:46:38;;;;;;;1.65;1.20;;;23.50;51.20;;;;;;5070202;28;20415;-69
2024/03/23 01:49:05;;;;;;;1.63;1.10;;;23.40;50.70;;;;;;5068858;28;20028;-69
2024/03/23 01:51:31;;;;;;;2.00;1.30;;;23.40;50.70;;;;;;5069451;28;20452;-68
2024/03/23 01:53:57;;;;;;;2.22;1.40;;;23.40;50.70;;;;;;5069319;28;20530;-70
2024/03/23 01:56:23;;;;;;;2.40;1.33;;;23.40;50.80;;;;;;5069880;28;20460;-69
2024/03/23 01:58:48;;;;;;;1.63;1.20;;;23.40;50.70;;;;;;5068016;28;20028;-69
2024/03/23 02:01:14;;;;;;;1.88;1.30;;;23.40;50.70;;;;;;5068874;28;20063;-69
2024/03/23 02:03:40;;;;;;;2.03;1.20;;;23.40;51.30;;;;;;5068780;28;20047;-69
2024/03/23 02:06:07;;;;;;;1.85;1.20;;;23.30;50.80;;;;;;5069756;28;20115;-69
2024/03/23 02:08:33;;;;;;;1.80;1.23;;;23.30;51.30;;;;;;5068964;28;20047;-70
2024/03/23 02:10:58;;;;;;;2.17;1.30;;;23.30;51.30;;;;;;5069292;28;20056;-70
2024/03/23 02:13:24;;;;;;;1.70;1.15;;;23.30;50.80;;;;;;5051592;28;20123;-69
2024/03/23 02:15:50;;;;;;;1.98;1.20;;;23.30;50.80;;;;;;5069791;28;20032;-65
2024/03/23 02:18:15;;;;;;;2.03;1.23;;;23.30;50.80;;;;;;5068486;28;20024;-65
2024/03/23 02:20:41;;;;;;;1.83;1.30;;;23.30;50.80;;;;;;5069746;28;20317;-62
2024/03/23 02:23:17;;;;;;;1.95;1.20;;;23.20;50.80;;;;;;5071818;28;20487;-65
2024/03/23 02:25:43;;;;;;;1.92;1.30;;;23.20;50.80;;;;;;5073581;28;20107;-64
2024/03/23 02:28:09;;;;;;;2.47;1.30;;;23.20;50.80;;;;;;5072390;28;20103;-65
2024/03/23 02:30:35;;;;;;;1.42;1.23;;;23.20;50.80;;;;;;5054796;28;20017;-64
2024/03/23 02:33:01;;;;;;;2.05;1.20;;;23.20;50.80;;;;;;5072243;28;20039;-64
2024/03/23 02:35:26;;;;;;;1.60;1.17;;;23.20;50.80;;;;;;5073802;28;20063;-65
2024/03/23 02:37:53;;;;;;;2.45;1.17;;;23.20;50.80;;;;;;5073150;28;20093;-65
2024/03/23 02:40:20;;;;;;;1.92;1.17;;;23.20;50.80;;;;;;5072796;28;20436;-65
2024/03/23 02:42:45;;;;;;;1.58;1.10;;;23.20;50.90;;;;;;5073123;28;20044;-65
2024/03/23 02:45:11;;;;;;;1.73;1.17;;;23.20;50.90;;;;;;5073098;28;20422;-67
2024/03/23 02:47:37;;;;;;;1.75;1.10;;;23.20;50.90;;;;;;5073374;28;20016;-67
2024/03/23 02:50:04;;;;;;;1.40;1.05;;;23.10;50.80;;;;;;5072437;28;20044;-67
2024/03/23 02:52:30;;;;;;;1.50;1.00;;;23.10;50.90;;;;;;5073036;28;20024;-67
2024/03/23 02:54:55;;;;;;;1.92;1.20;;;23.10;50.90;;;;;;5072339;28;20024;-67
2024/03/23 02:57:21;;;;;;;1.70;1.20;;;23.10;50.90;;;;;;5072830;28;20415;-67
2024/03/23 02:59:46;;;;;;;1.92;1.30;;;23.10;50.90;;;;;;5072700;28;20429;-67
2024/03/23 03:02:13;;;;;;;1.80;1.27;;;23.00;50.90;;;;;;5072743;28;20368;-67
2024/03/23 03:04:39;;;;;;;2.35;1.20;;;23.00;50.90;;;;;;5071851;28;20110;-67
2024/03/23 03:07:05;;;;;;;1.55;1.20;;;23.10;51.00;;;;;;5072370;28;20095;-67
2024/03/23 03:09:30;;;;;;;1.80;1.30;;;23.00;50.90;;;;;;5072286;28;20418;-67
2024/03/23 03:11:56;;;;;;;2.28;1.30;;;23.00;51.00;;;;;;5072622;28;20020;-67
2024/03/23 03:14:22;;;;;;;1.75;1.30;;;23.00;50.90;;;;;;5072750;28;20028;-67
2024/03/23 03:16:48;;;;;;;1.83;1.27;;;23.00;51.00;;;;;;5072566;28;20498;-66
2024/03/23 03:19:13;;;;;;;1.75;1.27;;;23.00;51.00;;;;;;5071573;28;20029;-66
2024/03/23 03:21:39;;;;;;;1.98;1.10;;;23.00;51.00;;;;;;5072287;28;20028;-67
2024/03/23 03:24:06;;;;;;;1.75;1.10;;;22.90;50.90;;;;;;5053709;28;20052;-70
2024/03/23 03:26:32;;;;;;;2.13;1.20;;;23.00;51.00;;;;;;5072474;28;20051;-70
2024/03/23 03:28:57;;;;;;;1.83;1.27;;;23.00;51.30;;;;;;5071959;28;20016;-69
2024/03/23 03:31:23;;;;;;;2.03;1.20;;;22.90;51.00;;;;;;5063452;28;20021;-69
2024/03/23 03:33:50;;;;;;;1.38;1.02;;;22.90;51.00;;;;;;5051996;28;20194;-69
2024/03/23 03:36:16;;;;;;;2.58;1.30;;;22.90;51.00;;;;;;5072481;28;20060;-69
2024/03/23 03:38:42;;;;;;;2.22;1.30;;;22.90;51.00;;;;;;5071887;28;20052;-70
2024/03/23 03:41:08;;;;;;;1.63;1.20;;;22.90;51.10;;;;;;5072186;28;20059;-69
2024/03/23 03:43:34;;;;;;;1.48;1.10;;;22.90;51.10;;;;;;5072069;28;20029;-69
2024/03/23 03:46:00;;;;;;;1.48;1.13;;;22.90;51.00;;;;;;5072058;28;20499;-69
2024/03/23 03:48:26;;;;;;;2.15;1.30;;;22.90;51.10;;;;;;5070856;28;20028;-69
2024/03/23 03:50:52;;;;;;;1.55;1.20;;;22.80;51.10;;;;;;5071884;28;20172;-69
2024/03/23 03:53:19;;;;;;;1.90;1.20;;;22.80;51.00;;;;;;5071854;28;20107;-69
2024/03/23 03:55:44;;;;;;;1.52;0.98;;;22.80;51.10;;;;;;5053519;28;20518;-65
2024/03/23 03:58:10;;;;;;;1.77;1.05;;;22.80;51.10;;;;;;5071779;28;20032;-66
2024/03/23 04:00:35;;;;;;;1.95;1.25;;;22.80;51.10;;;;;;5071610;28;20056;-63
2024/03/23 04:03:01;;;;;;;2.38;1.40;;;22.80;51.10;;;;;;5072202;28;20033;-65
2024/03/23 04:05:27;;;;;;;1.80;1.20;;;22.80;51.10;;;;;;5070613;28;20025;-65
2024/03/23 04:07:53;;;;;;;1.67;1.13;;;22.80;51.10;;;;;;5071344;28;20020;-65
2024/03/23 04:10:19;;;;;;;2.20;1.38;;;22.80;51.10;;;;;;5070606;28;20900;-65
2024/03/23 04:12:45;;;;;;;2.45;1.30;;;22.70;51.10;;;;;;5071481;28;20037;-65
2024/03/23 04:15:11;;;;;;;1.88;1.30;;;22.70;51.10;;;;;;5071402;28;20059;-65
2024/03/23 04:17:37;;;;;;;2.08;1.30;;;22.70;51.20;;;;;;5071322;28;20028;-65
2024/03/23 04:20:05;;;;;;;1.38;1.15;;;22.70;51.60;;;;;;5070585;28;20127;-65
2024/03/23 04:22:33;;;;;;;1.73;1.10;;;22.70;51.10;;;;;;5070946;28;20027;-63
2024/03/23 04:24:59;;;;;;;1.90;1.20;;;22.70;51.20;;;;;;5057660;28;20115;-64
2024/03/23 04:27:24;;;;;;;2.20;1.15;;;22.70;51.10;;;;;;5071097;28;20025;-66
2024/03/23 04:29:51;;;;;;;1.85;1.10;;;22.70;51.10;;;;;;5070940;28;20036;-67
2024/03/23 04:32:17;;;;;;;1.67;1.10;;;22.70;51.10;;;;;;5052818;28;20529;-67
2024/03/23 04:34:43;;;;;;;1.63;1.10;;;22.70;51.10;;;;;;5069907;28;20027;-66
2024/03/23 04:37:09;;;;;;;1.67;1.20;;;22.70;51.20;;;;;;5070265;28;20029;-67
2024/03/23 04:39:38;;;;;;;1.40;1.10;;;22.70;51.20;;;;;;5070163;28;20032;-66
2024/03/23 04:42:05;;;;;;;1.85;1.10;;;22.60;51.10;;;;;;5070730;28;20142;-67
2024/03/23 04:44:31;;;;;;;1.75;1.17;;;22.70;51.20;;;;;;5070273;28;20487;-66
2024/03/23 04:46:57;;;;;;;1.88;1.23;;;22.70;51.20;;;;;;5070758;28;20028;-66
2024/03/23 04:49:23;;;;;;;1.70;1.10;;;22.70;51.20;;;;;;5069551;28;20048;-66
2024/03/23 04:51:48;;;;;;;1.60;1.15;;;22.60;51.20;;;;;;5070606;28;20062;-64
2024/03/23 04:54:14;;;;;;;1.85;1.20;;;22.60;51.20;;;;;;5070101;28;20381;-66
2024/03/23 04:56:40;;;;;;;1.85;1.20;;;22.60;51.20;;;;;;5069663;28;20090;-67
2024/03/23 04:59:06;;;;;;;1.52;1.02;;;22.60;51.20;;;;;;5070557;28;20032;-66
2024/03/23 05:01:31;;;;;;;1.35;1.08;;;22.60;51.20;;;;;;5070233;28;20379;-67
2024/03/23 05:03:58;;;;;;;1.52;1.10;;;22.60;51.20;;;;;;5069406;28;20024;-66
2024/03/23 05:06:24;;;;;;;1.25;1.10;;;22.60;51.20;;;;;;5070518;28;20028;-65
2024/03/23 05:08:50;;;;;;;1.63;1.13;;;22.60;51.20;;;;;;5068678;28;20036;-65
2024/03/23 05:11:16;;;;;;;2.20;1.20;;;22.60;51.20;;;;;;5070144;28;20036;-65
2024/03/23 05:13:42;;;;;;;1.60;1.00;;;22.60;51.20;;;;;;5070542;28;20032;-64
2024/03/23 05:16:08;;;;;;;2.08;1.10;;;22.60;51.20;;;;;;5070095;28;20032;-65
2024/03/23 05:18:34;;;;;;;1.70;1.20;;;22.60;51.20;;;;;;5070225;28;20028;-65
2024/03/23 05:21:00;;;;;;;1.95;1.20;;;22.60;51.20;;;;;;5069058;28;20082;-65
2024/03/23 05:23:26;;;;;;;1.17;1.00;;;22.50;51.20;;;;;;5069980;28;20067;-64
2024/03/23 05:25:53;;;;;;;1.73;1.05;;;22.50;51.20;;;;;;5069874;28;20028;-65
2024/03/23 05:28:18;;;;;;;1.40;1.00;;;22.60;51.30;;;;;;5069631;28;20025;-65
2024/03/23 05:30:49;;;;;;;1.60;1.00;;;22.50;51.20;;;;;;5070131;28;20016;-65
2024/03/23 05:33:15;;;;;;;1.85;1.00;;;22.50;51.30;;;;;;5069962;28;20020;-65
2024/03/23 05:35:40;;;;;;;1.60;1.08;;;22.50;51.30;;;;;;5068944;28;20029;-67
2024/03/23 05:38:06;;;;;;;1.52;1.10;;;22.50;51.30;;;;;;5069902;28;20477;-67
2024/03/23 05:40:32;;;;;;;1.60;1.10;;;22.50;51.30;;;;;;5069677;28;20078;-68
2024/03/23 05:42:57;;;;;;;1.70;1.10;;;22.50;51.30;;;;;;5069939;28;20025;-67
2024/03/23 05:45:23;;;;;;;1.33;1.00;;;22.50;51.30;;;;;;5069133;28;20368;-69
2024/03/23 05:47:49;;;;;;;1.33;0.98;;;22.50;51.30;;;;;;5051851;28;20115;-69
2024/03/23 05:50:15;;;;;;;1.48;1.00;;;22.50;51.30;;;;;;5068965;28;20017;-67
2024/03/23 05:52:42;;;;;;;1.40;1.05;;;22.50;51.90;;;;;;5070054;28;20048;-69
2024/03/23 05:55:08;;;;;;;2.15;0.90;;;22.50;51.90;;;;;;5069534;28;20468;-69
2024/03/23 05:57:33;;;;;;;1.77;1.30;;;22.40;51.40;;;;;;5072036;28;20028;-69
2024/03/23 05:59:59;;;;;;;1.77;1.17;;;22.50;51.50;;;;;;5073937;28;20086;-69
2024/03/23 06:02:24;;;;;;;1.40;1.00;;;22.40;51.40;;;;;;5055909;28;20056;-70
2024/03/23 06:04:50;;;;;;;1.83;1.20;;;22.40;51.40;;;;;;5054697;28;20549;-69
2024/03/23 06:07:16;;;;;;;1.90;1.27;;;22.40;51.50;;;;;;5073765;28;20047;-69
2024/03/23 06:09:41;;;;;;;1.00;0.85;;;22.40;51.50;;;;;;5064737;28;20024;-69
2024/03/23 06:12:08;;;;;;;1.92;0.98;;;22.40;51.50;;;;;;5073427;28;20100;-69
2024/03/23 06:14:34;;;;;;;1.58;1.05;;;22.40;51.50;;;;;;5073441;28;20036;-69
2024/03/23 06:17:00;;;;;;;1.23;0.98;;;22.40;51.50;;;;;;5073512;28;20361;-65
2024/03/23 06:19:27;;;;;;;1.05;0.90;;;22.40;51.50;;;;;;5062484;28;20035;-66
2024/03/23 06:21:53;;;;;;;1.70;1.10;;;22.40;51.50;;;;;;5073011;28;20611;-66
2024/03/23 06:24:20;;;;;;;1.70;1.00;;;22.40;51.60;;;;;;5073320;28;20016;-66
2024/03/23 06:26:46;;;;;;;1.60;0.90;;;22.40;51.60;;;;;;5072769;28;20027;-66
2024/03/23 06:29:11;;;;;;;1.13;0.90;;;22.40;51.60;;;;;;5073252;28;20021;-67
2024/03/23 06:31:37;;;;;;;1.33;1.00;;;22.40;51.60;;;;;;5073197;28;20028;-66
2024/03/23 06:34:03;;;;;;;1.02;0.90;;;22.40;51.70;;;;;;5073495;28;20465;-67
2024/03/23 06:36:30;;;;;;;1.30;0.90;;;22.40;51.70;;;;;;5071932;28;20043;-66
2024/03/23 06:38:56;;;;;;;1.08;0.80;;;22.40;51.70;;;;;;5072912;28;20070;-66
2024/03/23 06:41:21;;;;;;;1.48;1.00;;;22.40;51.70;;;;;;5072790;28;20480;-67
2024/03/23 06:43:47;;;;;;;2.42;1.25;;;22.40;51.70;;;;;;5072854;28;20383;-66
2024/03/23 06:46:13;;;;;;;1.52;1.10;;;22.40;51.70;;;;;;5073165;28;20052;-69
2024/03/23 06:48:38;;;;;;;1.33;1.00;;;22.30;51.70;;;;;;5072814;28;20414;-69
2024/03/23 06:51:04;;;;;;;1.27;1.00;;;22.40;51.70;;;;;;5071787;28;20050;-69
2024/03/23 06:53:29;;;;;;;1.60;1.00;;;22.40;51.80;;;;;;5072945;28;20109;-69
2024/03/23 06:55:55;;;;;;;1.33;1.00;;;22.30;51.70;;;;;;5072043;28;20028;-66
2024/03/23 06:58:23;;;;;;;1.95;1.20;;;22.30;51.70;;;;;;5072774;28;20083;-65
2024/03/23 07:00:49;;;;;;;2.28;1.08;;;22.30;51.70;;;;;;5072482;28;20016;-65
2024/03/23 07:03:15;;;;;;;1.05;0.90;;;22.30;51.80;;;;;;5072538;28;20035;-66
2024/03/23 07:05:41;;;;;;;1.42;1.00;;;22.30;51.70;;;;;;5071213;28;20036;-65
2024/03/23 07:08:07;;;;;;;1.48;1.00;;;22.30;51.80;;;;;;5072270;28;20021;-64
2024/03/23 07:10:33;;;;;;;1.42;1.00;;;22.30;51.80;;;;;;5072067;28;20024;-66
2024/03/23 07:12:58;;;;;;;1.25;0.90;;;22.30;51.70;;;;;;5072477;28;20032;-64
2024/03/23 07:15:24;;;;;;;1.85;1.00;;;22.30;51.80;;;;;;5072624;28;20032;-65
2024/03/23 07:17:50;;;;;;;1.42;1.20;;;22.30;51.80;;;;;;5072580;28;20079;-65
2024/03/23 07:20:15;;;;;;;2.28;1.00;;;22.30;51.80;;;;;;5071242;28;20036;-65
2024/03/23 07:22:41;;;;;;;1.65;1.00;;;22.30;51.80;;;;;;5072371;28;20086;-65
2024/03/23 07:25:07;;;;;;;1.90;1.02;;;22.30;51.80;;;;;;5072184;28;20106;-67
2024/03/23 07:27:33;;;;;;;1.50;1.10;;;22.30;51.80;;;;;;5060381;28;20031;-66
2024/03/23 07:30:00;;;;;;;2.15;1.23;;;22.30;51.80;;;;;;5071915;28;20021;-67
2024/03/23 07:32:26;;;;;;;1.77;1.20;;;22.30;51.80;;;;;;5072213;28;20032;-67
2024/03/23 07:34:52;;;;;;;1.48;1.00;;;22.30;51.80;;;;;;5072272;28;20578;-68
2024/03/23 07:37:18;;;;;;;1.58;1.02;;;22.20;51.70;;;;;;5071102;28;20028;-67
2024/03/23 07:39:44;;;;;;;1.75;0.93;;;22.20;51.80;;;;;;5071851;28;20448;-67
2024/03/23 07:42:09;;;;;;;1.33;0.93;;;22.20;51.80;;;;;;5053532;28;20048;-67
2024/03/23 07:44:35;;;;;;;1.83;1.05;;;22.20;51.80;;;;;;5071868;28;20020;-67
2024/03/23 07:47:01;;;;;;;2.25;1.02;;;22.20;51.80;;;;;;5053739;28;20043;-67
2024/03/23 07:49:27;;;;;;;1.30;0.90;;;22.20;51.80;;;;;;5071942;28;20028;-67
2024/03/23 07:51:53;;;;;;;1.75;1.00;;;22.20;51.80;;;;;;5070457;28;20471;-67
2024/03/23 07:54:18;;;;;;;1.85;1.00;;;22.20;51.80;;;;;;5071730;28;20032;-67
2024/03/23 07:56:44;;;;;;;2.22;1.10;;;22.20;51.80;;;;;;5071504;28;20103;-64
2024/03/23 07:59:10;;;;;;;1.60;0.98;;;22.20;51.80;;;;;;5071713;28;20522;-65
2024/03/23 08:01:36;;;;;;;1.52;0.93;;;22.20;51.80;;;;;;5071499;28;20479;-65
2024/03/23 08:04:02;;;;;;;1.98;1.02;;;22.20;51.80;;;;;;5071455;28;20028;-65
2024/03/23 08:06:27;;;;;;;1.80;1.00;;;22.20;51.80;;;;;;5052615;28;20448;-65
2024/03/23 08:09:01;;;;;;;2.10;1.00;;;22.20;51.80;;;;;;5071077;28;20029;-65
2024/03/23 08:11:28;;;;;;;1.52;0.98;;;22.20;51.80;;;;;;5071226;28;20020;-64
2024/03/23 08:13:54;;;;;;;1.42;1.00;;;22.20;51.80;;;;;;5071005;28;20572;-65
2024/03/23 08:16:21;;;;;;;1.67;1.05;;;22.20;51.80;;;;;;5071332;28;20085;-64
2024/03/23 08:18:46;;;;;;;1.35;1.00;;;22.20;51.80;;;;;;5070801;28;20032;-64
2024/03/23 08:21:12;;;;;;;1.27;0.90;;;22.20;51.80;;;;;;5069963;28;20052;-65
2024/03/23 08:23:38;;;;;;;1.95;1.10;;;22.20;51.80;;;;;;5071176;28;20033;-66
2024/03/23 08:26:15;;;;;;;1.88;0.95;;;22.20;51.80;;;;;;5070508;28;20082;-65
2024/03/23 08:28:41;;;;;;;1.70;1.00;;;22.20;51.80;;;;;;5070952;28;20035;-65
2024/03/23 08:31:10;;;;;;;1.65;1.10;;;22.20;51.80;;;;;;5070841;28;20020;-65
2024/03/23 08:33:36;;;;;;;1.50;1.02;;;22.20;51.80;;;;;;5070462;28;20024;-66
2024/03/23 08:36:04;;;;;;;1.02;0.85;;;22.20;51.80;;;;;;5070008;28;20105;-68
2024/03/23 08:38:30;;;;;;;1.10;0.80;;;22.20;51.70;;;;;;5070615;28;20112;-69
2024/03/23 08:41:00;;;;;;;1.30;0.90;;;22.10;51.60;;;;;;5069933;28;20107;-69
2024/03/23 08:43:26;;;;;;;;;;;22.10;51.60;;;;;;5071092;28;20123;-69
2024/03/23 08:45:52;;;;;;;1.92;1.00;;;22.10;51.60;;;;;;5071022;28;19911;-69
2024/03/23 08:48:20;;;;;;;1.38;0.88;;;22.10;51.50;;;;;;5070940;28;20029;-69
2024/03/23 08:50:46;;;;;;;1.33;0.85;;;22.20;51.60;;;;;;5069306;28;20023;-69
2024/03/23 08:53:12;;;;;;;1.00;0.90;;;22.10;51.50;;;;;;5052210;28;20120;-69
2024/03/23 08:55:37;;;;;;;1.45;0.93;;;22.10;51.40;;;;;;5070444;28;20150;-70
2024/03/23 08:58:03;;;;;;;1.23;0.80;;;22.10;51.40;;;;;;5070145;28;20032;-69
2024/03/23 09:00:30;;;;;;;1.23;0.80;;;22.10;51.40;;;;;;5070626;28;20050;-69
2024/03/23 09:02:56;;;;;;;0.95;0.80;;;22.10;51.30;;;;;;5070387;28;20578;-69
2024/03/23 09:05:24;;;;;;;1.50;0.90;;;22.10;51.30;;;;;;5070393;28;20020;-69
2024/03/23 09:07:49;;;;;;;1.10;0.90;;;22.10;51.20;;;;;;5058163;28;20031;-69
2024/03/23 09:10:15;;;;;;;1.58;0.90;;;22.10;51.20;;;;;;5070159;28;20131;-68
2024/03/23 09:12:41;;;;;;;1.40;0.98;;;22.10;51.20;;;;;;5070166;28;20461;-69
2024/03/23 09:15:07;;;;;;;1.00;0.77;;;22.10;51.10;;;;;;5070323;28;20040;-67
2024/03/23 09:17:32;;;;;;;1.23;0.90;;;22.10;51.10;;;;;;5070341;28;20025;-67
2024/03/23 09:19:58;;;;;;;1.45;0.90;;;22.10;51.10;;;;;;5070207;28;20032;-67
2024/03/23 09:22:23;;;;;;;1.20;0.75;;;22.00;51.10;;;;;;5069017;28;20103;-67
2024/03/23 09:24:49;;;;;;;1.35;0.90;;;22.10;51.10;;;;;;5068679;28;20104;-67
2024/03/23 09:27:15;;;;;;;1.33;0.80;;;22.10;51.10;;;;;;5069801;28;20089;-67
2024/03/23 09:29:40;;;;;;;1.50;0.80;;;22.00;51.00;;;;;;5070225;28;20031;-67
2024/03/23 09:32:06;;;;;;;1.23;0.80;;;22.10;51.10;;;;;;5051032;28;20028;-67
2024/03/23 09:34:31;;;;;;;1.80;1.00;;;22.00;51.00;;;;;;5070129;28;20100;-67
2024/03/23 09:36:57;;;;;;;1.30;0.80;;;22.00;51.00;;;;;;5069177;28;20422;-68
2024/03/23 09:39:22;;;;;;;1.13;0.70;;;22.00;51.10;;;;;;5069913;28;20043;-67
2024/03/23 09:41:48;;;;;;;1.00;0.77;;;22.10;51.10;;;;;;5069625;28;20444;-67
2024/03/23 09:44:14;;;;;;;1.52;0.80;;;22.00;51.10;;;;;;5069831;28;20480;-68
2024/03/23 09:46:39;;;;;;;1.27;0.80;;;22.10;51.20;;;;;;5070054;28;20024;-67
2024/03/23 09:49:08;;;;;;;1.00;0.90;;;22.10;51.20;;;;;;5069801;28;20108;-67
2024/03/23 09:51:36;;;;;;;2.03;0.80;;;22.00;51.20;;;;;;5068732;28;20434;-68
2024/03/23 09:54:02;;;;;;;1.20;0.70;;;22.00;51.20;;;;;;5068320;28;20032;-67
2024/03/23 09:56:27;;;;;;;1.63;0.82;;;22.00;51.20;;;;;;5069740;28;20096;-67
2024/03/23 09:59:03;;;;;;;1.30;0.75;;;22.00;51.20;;;;;;5069652;28;20055;-67
2024/03/23 10:01:32;;;;;;;1.23;0.82;;;22.00;51.20;;;;;;5069908;28;20032;-67
2024/03/23 10:03:58;;;;;;;1.02;0.73;;;22.10;51.30;;;;;;5069375;28;20062;-67
2024/03/23 10:06:26;;;;;;;0.98;0.75;;;22.00;51.20;;;;;;5068448;28;20077;-67
2024/03/23 10:08:54;;;;;;;1.27;0.80;;;22.00;51.20;;;;;;5069546;28;20191;-67
2024/03/23 10:11:21;;;;;;;0.90;0.70;;;22.00;51.30;;;;;;5068779;28;20025;-67
2024/03/23 10:13:47;;;;;;;1.00;0.80;;;22.00;51.30;;;;;;5068755;28;20033;-67
2024/03/23 10:16:21;;;;;;;0.95;0.70;;;22.00;51.30;;;;;;5069391;28;20421;-64
2024/03/23 10:18:47;;;;;;;1.25;0.85;;;22.00;51.40;;;;;;5069366;28;20461;-66
2024/03/23 10:21:14;;;;;;;1.45;0.90;;;22.00;51.40;;;;;;5069451;28;20060;-66
2024/03/23 10:23:44;;;;;;;1.10;0.80;;;22.00;51.40;;;;;;5069166;28;20585;-65
2024/03/23 10:26:25;;;;;;;1.30;0.85;;;22.00;51.40;;;;;;5069374;28;20440;-69
2024/03/23 10:29:01;;;;;;;2.20;0.90;;;22.00;51.50;;;;;;5069190;28;20025;-69
2024/03/23 10:31:28;;;;;;;1.70;1.00;;;22.00;51.50;;;;;;5069266;28;20480;-69
2024/03/23 10:33:54;;;;;;;1.50;0.90;;;22.00;51.60;;;;;;5069451;28;20023;-69
2024/03/23 10:36:21;;;;;;;1.45;0.82;;;22.00;51.60;;;;;;5069497;28;20450;-69
2024/03/23 10:38:49;;;;;;;1.17;0.70;;;22.00;51.60;;;;;;5050641;28;20119;-69
2024/03/23 10:41:15;;;;;;;1.52;0.95;;;22.00;51.60;;;;;;5069279;28;20046;-69
2024/03/23 10:43:40;;;;;;;1.30;0.80;;;22.00;51.60;;;;;;5045715;28;20036;-69
2024/03/23 10:46:06;;;;;;;0.88;0.80;;;22.00;52.10;;;;;;5072840;28;20024;-69
2024/03/23 10:48:33;;;;;;;1.23;0.75;;;22.00;51.60;;;;;;5073005;28;20033;-69
2024/03/23 10:50:59;;;;;;;1.08;0.70;;;22.00;51.70;;;;;;5073523;28;20017;-69
2024/03/23 10:53:28;;;;;;;1.48;0.70;;;22.00;51.70;;;;;;5071755;28;20078;-69
2024/03/23 10:55:54;;;;;;;;;;;22.00;51.70;;;;;;5073381;28;20060;-64
2024/03/23 10:58:26;;;;;;;1.08;0.80;;;22.00;51.70;;;;;;5072229;28;19931;-65
2024/03/23 11:00:53;;;;;;;1.50;0.90;;;22.00;51.70;;;;;;5072459;28;20472;-65
2024/03/23 11:03:32;;;;;;;1.27;0.80;;;22.00;51.80;;;;;;5071155;28;20024;-65
2024/03/23 11:05:59;;;;;;;1.33;0.87;;;22.00;51.80;;;;;;5072770;28;20032;-65
2024/03/23 11:08:39;;;;;;;1.77;0.93;;;22.00;51.90;;;;;;5071676;28;20293;-65
2024/03/23 11:11:24;;;;;;;2.35;0.80;;;22.00;51.90;;;;;;5072521;28;20472;-65
2024/03/23 11:13:51;;;;;;;1.45;0.88;;;22.00;51.90;;;;;;5072205;28;20036;-65
2024/03/23 11:16:35;;;;;;;1.13;0.80;;;22.00;51.90;;;;;;5072313;28;20052;-64
2024/03/23 11:19:38;;;;;;;0.90;0.75;;;22.00;51.90;;;;;;5072497;28;20077;-64
2024/03/23 11:22:05;;;;;;;1.23;0.88;;;22.00;52.00;;;;;;5071051;28;20027;-65
2024/03/23 11:24:31;;;;;;;1.33;0.82;;;22.00;51.90;;;;;;5072394;28;20487;-65
2024/03/23 11:27:01;;;;;;;1.13;0.75;;;22.00;52.00;;;;;;5072355;28;20043;-68
2024/03/23 11:29:28;;;;;;;1.73;0.98;;;22.00;52.00;;;;;;5071780;28;20025;-69
2024/03/23 11:31:53;;;;;;;1.50;0.77;;;22.00;52.00;;;;;;5072000;28;20841;-69
2024/03/23 11:34:20;;;;;;;1.63;0.80;;;22.00;52.00;;;;;;5072174;28;20036;-68
2024/03/23 11:36:47;;;;;;;1.10;0.77;;;22.00;52.50;;;;;;5072046;28;20027;-69
2024/03/23 11:39:20;;;;;;;1.20;0.80;;;22.00;52.00;;;;;;5070651;28;20491;-69
2024/03/23 11:41:52;;;;;;;0.90;0.70;;;22.00;52.00;;;;;;5072052;28;20021;-68
2024/03/23 11:44:24;;;;;;;1.23;0.80;;;22.00;52.00;;;;;;5071570;28;20761;-69
2024/03/23 11:46:50;;;;;;;1.17;0.80;;;22.00;52.00;;;;;;5071833;28;20092;-69
2024/03/23 11:49:29;;;;;;;1.30;0.80;;;22.00;52.00;;;;;;5071667;28;20113;-69
2024/03/23 11:51:56;;;;;;;1.15;0.70;;;22.00;52.00;;;;;;5071674;28;20107;-68
2024/03/23 11:54:23;;;;;;;1.20;0.80;;;22.00;52.00;;;;;;5069981;28;20055;-68
2024/03/23 11:56:56;;;;;;;1.10;0.70;;;22.00;52.00;;;;;;5071456;28;20024;-69
2024/03/23 11:59:40;;;;;;;1.60;0.70;;;22.00;52.00;;;;;;5070882;28;20384;-69
2024/03/23 12:02:15;;;;;;;1.23;0.80;;;22.00;52.00;;;;;;5071795;28;20384;-69
2024/03/23 12:04:41;;;;;;;0.82;0.70;;;22.00;52.10;;;;;;5043855;28;20093;-69
2024/03/23 12:07:12;;;;;;;1.30;0.85;;;22.00;52.00;;;;;;5070785;28;20021;-69
2024/03/23 12:09:38;;;;;;;0.90;0.70;;;22.00;52.00;;;;;;5071319;28;20571;-69
2024/03/23 12:12:21;;;;;;;1.23;0.90;;;22.00;52.00;;;;;;5071482;28;20024;-68
2024/03/23 12:15:05;;;;;;;1.13;0.70;;;22.00;52.00;;;;;;5070837;28;20492;-69
2024/03/23 12:17:31;;;;;;;1.30;0.80;;;22.00;52.00;;;;;;5071013;28;20484;-69
2024/03/23 12:19:57;;;;;;;1.35;0.80;;;22.00;52.00;;;;;;5071415;28;20067;-69
2024/03/23 12:22:24;;;;;;;1.35;0.70;;;22.00;52.00;;;;;;5070203;28;20025;-68
2024/03/23 12:24:50;;;;;;;1.27;0.90;;;22.00;52.50;;;;;;5071124;28;20032;-69
2024/03/23 12:27:15;;;;;;;1.05;0.70;;;22.00;52.00;;;;;;5071053;28;20086;-69
2024/03/23 12:29:43;;;;;;;1.77;0.80;;;22.00;52.10;;;;;;5070874;28;20024;-69
2024/03/23 12:32:09;;;;;;;1.17;0.75;;;22.00;52.10;;;;;;5071054;28;20140;-69
2024/03/23 12:34:35;;;;;;;1.30;0.90;;;22.00;52.30;;;;;;5070817;28;20108;-69
2024/03/23 12:37:00;;;;;;;0.93;0.63;;;22.00;52.30;;;;;;5070811;28;20031;-68
2024/03/23 12:39:27;;;;;;;1.00;0.70;;;22.00;52.30;;;;;;5070189;28;20025;-69
2024/03/23 12:41:53;;;;;;;1.63;1.00;;;22.00;52.30;;;;;;5070739;28;20381;-69
2024/03/23 12:44:18;;;;;;;1.15;0.80;;;22.00;52.30;;;;;;5070381;28;20024;-69
2024/03/23 12:46:44;;;;;;;1.30;0.70;;;22.00;52.30;;;;;;5070397;28;20028;-65